createdAt,value
2022-12-12T00:00:34.341Z,988.01
2022-12-12T00:01:34.318Z,988.02
2022-12-12T00:02:34.433Z,988.03
2022-12-12T00:03:34.380Z,988.05
2022-12-12T00:04:34.275Z,988.06
2022-12-12T00:05:55.195Z,988.05
2022-12-12T00:06:34.171Z,988.06
2022-12-12T00:07:34.146Z,988.06
2022-12-12T00:08:34.113Z,988.10
2022-12-12T00:09:34.084Z,988.12
2022-12-12T00:10:34.051Z,988.09
2022-12-12T00:11:55.032Z,988.06
2022-12-12T00:12:34.000Z,988.04
2022-12-12T00:13:33.974Z,988.03
2022-12-12T00:14:33.952Z,988.02
2022-12-12T00:15:34.003Z,988.04
2022-12-12T00:16:33.891Z,988.05
2022-12-12T00:17:54.863Z,988.12
2022-12-12T00:18:33.849Z,988.07
2022-12-12T00:19:33.814Z,988.10
2022-12-12T00:20:33.780Z,988.09
2022-12-12T00:21:33.757Z,988.09
2022-12-12T00:22:33.768Z,988.07
2022-12-12T00:23:54.707Z,988.08
2022-12-12T00:24:33.674Z,988.05
2022-12-12T00:25:33.643Z,988.07
2022-12-12T00:26:33.620Z,988.06
2022-12-12T00:27:33.597Z,988.04
2022-12-12T00:28:33.567Z,988.03
2022-12-12T00:29:54.539Z,988.04
2022-12-12T00:30:33.513Z,988.02
2022-12-12T00:31:33.626Z,988.03
2022-12-12T00:32:33.451Z,988.01
2022-12-12T00:33:33.432Z,987.99
2022-12-12T00:34:33.399Z,988.01
2022-12-12T00:35:54.378Z,988.02
2022-12-12T00:36:33.345Z,988.02
2022-12-12T00:37:33.359Z,988.01
2022-12-12T00:38:33.313Z,987.99
2022-12-12T00:39:33.264Z,987.96
2022-12-12T00:40:33.247Z,988.01
2022-12-12T00:41:54.208Z,988.01
2022-12-12T00:42:33.171Z,987.97
2022-12-12T00:43:33.153Z,988.00
2022-12-12T00:44:33.119Z,988.01
2022-12-12T00:45:33.097Z,987.98
2022-12-12T00:46:33.094Z,987.98
2022-12-12T00:47:54.150Z,988.00
2022-12-12T00:48:33.035Z,987.97
2022-12-12T00:49:33.001Z,988.01
2022-12-12T00:50:32.952Z,988.01
2022-12-12T00:51:32.938Z,988.00
2022-12-12T00:52:32.914Z,988.02
2022-12-12T00:53:53.876Z,988.01
2022-12-12T00:54:32.858Z,988.03
2022-12-12T00:55:32.827Z,988.01
2022-12-12T00:56:32.824Z,988.03
2022-12-12T00:57:32.775Z,988.03
2022-12-12T00:58:32.742Z,988.04
2022-12-12T00:59:53.720Z,988.08
2022-12-12T01:00:32.691Z,988.09
2022-12-12T01:01:32.755Z,988.06
2022-12-12T01:02:32.654Z,988.07
2022-12-12T01:03:32.610Z,988.11
2022-12-12T01:04:32.572Z,988.11
2022-12-12T01:05:53.554Z,988.10
2022-12-12T01:06:32.516Z,988.11
2022-12-12T01:07:32.493Z,988.15
2022-12-12T01:08:32.459Z,988.12
2022-12-12T01:09:32.441Z,988.13
2022-12-12T01:10:32.405Z,988.14
2022-12-12T01:11:53.387Z,988.16
2022-12-12T01:12:32.386Z,988.17
2022-12-12T01:13:32.341Z,988.18
2022-12-12T01:14:32.296Z,988.19
2022-12-12T01:15:32.282Z,988.20
2022-12-12T01:16:32.275Z,988.20
2022-12-12T01:17:53.279Z,988.21
2022-12-12T01:18:32.191Z,988.23
2022-12-12T01:19:32.175Z,988.22
2022-12-12T01:20:32.143Z,988.23
2022-12-12T01:21:32.117Z,988.19
2022-12-12T01:22:32.075Z,988.23
2022-12-12T01:23:53.050Z,988.25
2022-12-12T01:24:32.028Z,988.21
2022-12-12T01:25:32.015Z,988.22
2022-12-12T01:26:31.965Z,988.21
2022-12-12T01:27:31.948Z,988.25
2022-12-12T01:28:31.909Z,988.22
2022-12-12T01:29:52.886Z,988.18
2022-12-12T01:30:31.856Z,988.22
2022-12-12T01:31:31.853Z,988.22
2022-12-12T01:32:31.814Z,988.20
2022-12-12T01:33:31.783Z,988.21
2022-12-12T01:34:31.749Z,988.21
2022-12-12T01:35:52.725Z,988.24
2022-12-12T01:36:31.694Z,988.18
2022-12-12T01:37:31.675Z,988.21
2022-12-12T01:38:31.652Z,988.21
2022-12-12T01:39:31.613Z,988.22
2022-12-12T01:40:31.579Z,988.24
2022-12-12T01:41:52.554Z,988.25
2022-12-12T01:42:31.522Z,988.25
2022-12-12T01:43:31.509Z,988.23
2022-12-12T01:44:31.478Z,988.24
2022-12-12T01:45:31.511Z,988.25
2022-12-12T01:46:31.478Z,988.28
2022-12-12T01:47:52.437Z,988.30
2022-12-12T01:48:31.400Z,988.29
2022-12-12T01:49:31.386Z,988.31
2022-12-12T01:50:31.306Z,988.28
2022-12-12T01:51:31.290Z,988.34
2022-12-12T01:52:31.266Z,988.37
2022-12-12T01:53:52.232Z,988.37
2022-12-12T01:54:31.343Z,988.43
2022-12-12T01:55:31.178Z,988.39
2022-12-12T01:56:31.138Z,988.43
2022-12-12T01:57:31.151Z,988.45
2022-12-12T01:58:31.091Z,988.46
2022-12-12T01:59:52.064Z,988.44
2022-12-12T02:00:31.063Z,988.43
2022-12-12T02:01:31.009Z,988.44
2022-12-12T02:02:30.995Z,988.44
2022-12-12T02:03:30.956Z,988.44
2022-12-12T02:04:30.922Z,988.44
2022-12-12T02:05:51.898Z,988.41
2022-12-12T02:06:30.868Z,988.43
2022-12-12T02:07:30.845Z,988.43
2022-12-12T02:08:30.852Z,988.45
2022-12-12T02:09:30.788Z,988.45
2022-12-12T02:10:30.761Z,988.45
2022-12-12T02:11:51.731Z,988.47
2022-12-12T02:12:30.713Z,988.45
2022-12-12T02:13:30.677Z,988.46
2022-12-12T02:14:30.646Z,988.47
2022-12-12T02:15:30.624Z,988.49
2022-12-12T02:16:30.639Z,988.46
2022-12-12T02:17:51.577Z,988.46
2022-12-12T02:18:30.538Z,988.47
2022-12-12T02:19:30.519Z,988.48
2022-12-12T02:20:30.483Z,988.47
2022-12-12T02:21:30.461Z,988.51
2022-12-12T02:22:30.433Z,988.51
2022-12-12T02:23:51.413Z,988.52
2022-12-12T02:24:30.375Z,988.47
2022-12-12T02:25:30.353Z,988.50
2022-12-12T02:26:30.318Z,988.47
2022-12-12T02:27:30.296Z,988.52
2022-12-12T02:28:30.284Z,988.50
2022-12-12T02:29:51.239Z,988.48
2022-12-12T02:30:30.250Z,988.53
2022-12-12T02:31:30.268Z,988.49
2022-12-12T02:32:32.187Z,988.51
2022-12-12T02:33:30.139Z,988.48
2022-12-12T02:34:30.099Z,988.51
2022-12-12T02:35:51.086Z,988.55
2022-12-12T02:36:30.040Z,988.53
2022-12-12T02:37:30.043Z,988.50
2022-12-12T02:38:29.991Z,988.52
2022-12-12T02:39:29.986Z,988.53
2022-12-12T02:40:29.948Z,988.52
2022-12-12T02:41:50.913Z,988.49
2022-12-12T02:42:29.891Z,988.53
2022-12-12T02:43:29.861Z,988.51
2022-12-12T02:44:29.826Z,988.51
2022-12-12T02:45:29.805Z,988.53
2022-12-12T02:46:29.795Z,988.55
2022-12-12T02:47:50.751Z,988.56
2022-12-12T02:48:29.720Z,988.61
2022-12-12T02:49:29.696Z,988.55
2022-12-12T02:50:29.672Z,988.52
2022-12-12T02:51:29.645Z,988.58
2022-12-12T02:52:29.608Z,988.57
2022-12-12T02:53:50.656Z,988.56
2022-12-12T02:54:29.595Z,988.59
2022-12-12T02:55:32.581Z,988.57
2022-12-12T02:56:29.567Z,988.58
2022-12-12T02:57:29.488Z,988.56
2022-12-12T02:58:29.506Z,988.56
2022-12-12T02:59:50.427Z,988.60
2022-12-12T03:00:29.422Z,988.57
2022-12-12T03:01:29.368Z,988.55
2022-12-12T03:02:29.339Z,988.60
2022-12-12T03:03:29.314Z,988.60
2022-12-12T03:04:29.291Z,988.60
2022-12-12T03:05:50.258Z,988.61
2022-12-12T03:06:29.240Z,988.58
2022-12-12T03:07:29.207Z,988.61
2022-12-12T03:08:29.219Z,988.57
2022-12-12T03:09:29.160Z,988.59
2022-12-12T03:10:29.118Z,988.59
2022-12-12T03:11:50.097Z,988.60
2022-12-12T03:12:29.069Z,988.59
2022-12-12T03:13:29.040Z,988.61
2022-12-12T03:14:29.006Z,988.58
2022-12-12T03:15:28.990Z,988.60
2022-12-12T03:16:28.993Z,988.58
2022-12-12T03:17:49.941Z,988.56
2022-12-12T03:18:30.949Z,988.54
2022-12-12T03:19:28.878Z,988.59
2022-12-12T03:20:28.853Z,988.60
2022-12-12T03:21:28.825Z,988.62
2022-12-12T03:22:28.827Z,988.63
2022-12-12T03:23:49.772Z,988.59
2022-12-12T03:24:28.736Z,988.58
2022-12-12T03:25:28.729Z,988.59
2022-12-12T03:26:28.735Z,988.60
2022-12-12T03:27:28.677Z,988.60
2022-12-12T03:28:28.676Z,988.58
2022-12-12T03:29:49.603Z,988.58
2022-12-12T03:30:28.577Z,988.57
2022-12-12T03:31:28.627Z,988.60
2022-12-12T03:32:28.519Z,988.59
2022-12-12T03:33:28.500Z,988.58
2022-12-12T03:34:28.462Z,988.57
2022-12-12T03:35:49.440Z,988.55
2022-12-12T03:36:28.408Z,988.49
2022-12-12T03:37:28.387Z,988.56
2022-12-12T03:38:28.361Z,988.56
2022-12-12T03:39:28.339Z,988.52
2022-12-12T03:40:28.297Z,988.54
2022-12-12T03:41:49.338Z,988.51
2022-12-12T03:42:28.260Z,988.50
2022-12-12T03:43:28.230Z,988.52
2022-12-12T03:45:28.231Z,988.53
2022-12-12T03:46:28.137Z,988.50
2022-12-12T03:47:49.114Z,988.50
2022-12-12T03:48:28.082Z,988.45
2022-12-12T03:49:28.056Z,988.48
2022-12-12T03:50:28.027Z,988.50
2022-12-12T03:51:28.009Z,988.51
2022-12-12T03:52:27.974Z,988.51
2022-12-12T03:53:48.949Z,988.51
2022-12-12T03:54:27.923Z,988.48
2022-12-12T03:55:27.955Z,988.50
2022-12-12T03:56:27.907Z,988.47
2022-12-12T03:57:27.866Z,988.50
2022-12-12T03:58:27.808Z,988.46
2022-12-12T03:59:48.806Z,988.47
2022-12-12T04:00:27.764Z,988.50
2022-12-12T04:01:27.756Z,988.53
2022-12-12T04:02:27.768Z,988.53
2022-12-12T04:03:27.682Z,988.57
2022-12-12T04:04:27.660Z,988.57
2022-12-12T04:05:48.625Z,988.57
2022-12-12T04:06:27.610Z,988.56
2022-12-12T04:07:27.592Z,988.61
2022-12-12T04:08:27.571Z,988.57
2022-12-12T04:09:27.519Z,988.59
2022-12-12T04:10:27.491Z,988.55
2022-12-12T04:11:48.470Z,988.54
2022-12-12T04:12:27.453Z,988.56
2022-12-12T04:13:31.938Z,988.60
2022-12-12T04:14:27.423Z,988.55
2022-12-12T04:15:27.389Z,988.54
2022-12-12T04:16:27.383Z,988.58
2022-12-12T04:17:48.309Z,988.58
2022-12-12T04:18:27.298Z,988.58
2022-12-12T04:19:27.241Z,988.63
2022-12-12T04:20:27.226Z,988.61
2022-12-12T04:21:27.193Z,988.61
2022-12-12T04:22:27.588Z,988.63
2022-12-12T04:23:48.155Z,988.60
2022-12-12T04:24:27.117Z,988.65
2022-12-12T04:25:27.078Z,988.58
2022-12-12T04:26:27.066Z,988.63
2022-12-12T04:27:27.064Z,988.61
2022-12-12T04:28:26.999Z,988.63
2022-12-12T04:29:47.974Z,988.62
2022-12-12T04:30:26.967Z,988.63
2022-12-12T04:31:26.959Z,988.63
2022-12-12T04:32:26.893Z,988.63
2022-12-12T04:33:26.864Z,988.63
2022-12-12T04:34:26.860Z,988.64
2022-12-12T04:35:47.809Z,988.64
2022-12-12T04:36:26.785Z,988.63
2022-12-12T04:37:26.785Z,988.63
2022-12-12T04:38:26.726Z,988.69
2022-12-12T04:39:26.694Z,988.71
2022-12-12T04:40:26.675Z,988.71
2022-12-12T04:41:47.645Z,988.70
2022-12-12T04:42:26.620Z,988.73
2022-12-12T04:43:26.589Z,988.72
2022-12-12T04:44:26.567Z,988.71
2022-12-12T04:45:26.537Z,988.72
2022-12-12T04:46:26.510Z,988.74
2022-12-12T04:47:47.479Z,988.72
2022-12-12T04:48:26.455Z,988.70
2022-12-12T04:49:26.428Z,988.75
2022-12-12T04:50:26.395Z,988.78
2022-12-12T04:51:26.434Z,988.75
2022-12-12T04:52:26.346Z,988.74
2022-12-12T04:53:47.311Z,988.77
2022-12-12T04:54:26.293Z,988.80
2022-12-12T04:55:26.262Z,988.75
2022-12-12T04:56:26.252Z,988.82
2022-12-12T04:57:26.255Z,988.80
2022-12-12T04:58:26.196Z,988.78
2022-12-12T04:59:47.150Z,988.79
2022-12-12T05:00:26.130Z,988.78
2022-12-12T05:01:26.117Z,988.81
2022-12-12T05:02:26.123Z,988.79
2022-12-12T05:03:26.043Z,988.80
2022-12-12T05:04:26.018Z,988.79
2022-12-12T05:05:46.984Z,988.81
2022-12-12T05:06:25.966Z,988.81
2022-12-12T05:07:25.931Z,988.84
2022-12-12T05:08:25.966Z,988.78
2022-12-12T05:09:25.891Z,988.82
2022-12-12T05:10:25.853Z,988.78
2022-12-12T05:11:46.819Z,988.81
2022-12-12T05:12:25.814Z,988.82
2022-12-12T05:13:25.786Z,988.81
2022-12-12T05:14:25.745Z,988.80
2022-12-12T05:15:25.746Z,988.85
2022-12-12T05:16:25.740Z,988.86
2022-12-12T05:17:46.722Z,988.85
2022-12-12T05:18:25.652Z,988.87
2022-12-12T05:19:25.613Z,988.86
2022-12-12T05:21:46.724Z,988.86
2022-12-12T05:22:46.671Z,988.88
2022-12-12T05:23:46.859Z,988.85
2022-12-12T05:24:46.725Z,988.88
2022-12-12T05:25:46.635Z,988.88
2022-12-12T05:26:46.448Z,988.93
2022-12-12T05:27:46.418Z,988.88
2022-12-12T05:28:46.405Z,988.91
2022-12-12T05:29:46.370Z,988.92
2022-12-12T05:30:46.378Z,988.94
2022-12-12T05:31:46.307Z,988.95
2022-12-12T05:32:46.283Z,988.98
2022-12-12T05:33:46.247Z,988.95
2022-12-12T05:34:46.232Z,988.96
2022-12-12T05:35:46.199Z,988.98
2022-12-12T05:36:46.170Z,988.99
2022-12-12T05:37:51.399Z,988.99
2022-12-12T05:38:46.187Z,988.98
2022-12-12T05:39:46.099Z,989.02
2022-12-12T05:40:46.068Z,989.02
2022-12-12T05:41:46.033Z,989.03
2022-12-12T05:42:46.013Z,989.02
2022-12-12T05:43:45.984Z,988.99
2022-12-12T05:44:45.959Z,989.00
2022-12-12T05:45:45.992Z,988.96
2022-12-12T05:46:45.908Z,988.98
2022-12-12T05:47:45.867Z,988.97
2022-12-12T05:48:45.851Z,988.98
2022-12-12T05:49:45.848Z,988.96
2022-12-12T05:50:45.799Z,988.97
2022-12-12T05:51:45.761Z,988.95
2022-12-12T05:52:45.740Z,988.93
2022-12-12T05:53:45.711Z,988.96
2022-12-12T05:54:45.680Z,988.96
2022-12-12T05:55:45.734Z,988.96
2022-12-12T05:56:45.690Z,988.98
2022-12-12T05:57:45.593Z,989.00
2022-12-12T05:58:45.580Z,988.96
2022-12-12T05:59:45.541Z,988.98
2022-12-12T06:00:45.926Z,988.96
2022-12-12T06:03:45.463Z,988.95
2022-12-12T06:04:45.410Z,988.96
2022-12-12T06:05:45.384Z,989.03
2022-12-12T06:06:45.364Z,989.00
2022-12-12T06:07:45.510Z,989.02
2022-12-12T06:08:45.348Z,989.01
2022-12-12T06:09:45.266Z,989.01
2022-12-12T06:10:45.250Z,989.01
2022-12-12T06:11:45.244Z,989.01
2022-12-12T06:12:45.195Z,989.09
2022-12-12T06:13:45.431Z,989.05
2022-12-12T06:14:45.312Z,989.08
2022-12-12T06:15:45.284Z,989.11
2022-12-12T06:16:45.084Z,989.07
2022-12-12T06:17:45.064Z,989.12
2022-12-12T06:18:45.029Z,989.12
2022-12-12T06:19:44.999Z,989.09
2022-12-12T06:20:44.979Z,989.07
2022-12-12T06:21:44.943Z,989.10
2022-12-12T06:22:46.863Z,989.12
2022-12-12T06:23:44.890Z,989.09
2022-12-12T06:24:44.868Z,989.10
2022-12-12T06:25:44.836Z,989.12
2022-12-12T06:26:44.812Z,989.14
2022-12-12T06:27:44.784Z,989.17
2022-12-12T06:28:44.754Z,989.17
2022-12-12T06:29:45.219Z,989.17
2022-12-12T06:30:45.257Z,989.14
2022-12-12T06:31:44.671Z,989.19
2022-12-12T06:32:44.648Z,989.18
2022-12-12T06:33:44.620Z,989.21
2022-12-12T06:34:44.593Z,989.22
2022-12-12T06:35:44.563Z,989.25
2022-12-12T06:36:44.539Z,989.25
2022-12-12T06:37:44.524Z,989.29
2022-12-12T06:38:44.484Z,989.27
2022-12-12T06:39:44.459Z,989.26
2022-12-12T06:40:44.430Z,989.26
2022-12-12T06:41:44.397Z,989.29
2022-12-12T06:42:48.224Z,989.28
2022-12-12T06:43:44.343Z,989.25
2022-12-12T06:44:44.320Z,989.27
2022-12-12T06:45:44.605Z,989.31
2022-12-12T06:46:44.410Z,989.25
2022-12-12T06:47:44.237Z,989.28
2022-12-12T06:48:44.218Z,989.25
2022-12-12T06:49:44.245Z,989.27
2022-12-12T06:50:44.159Z,989.25
2022-12-12T06:51:44.416Z,989.28
2022-12-12T06:52:44.107Z,989.28
2022-12-12T06:53:44.067Z,989.28
2022-12-12T06:54:44.067Z,989.33
2022-12-12T06:55:44.013Z,989.38
2022-12-12T06:56:48.240Z,989.35
2022-12-12T06:57:43.978Z,989.35
2022-12-12T06:58:43.936Z,989.38
2022-12-12T06:59:43.909Z,989.38
2022-12-12T07:00:43.894Z,989.43
2022-12-12T07:01:43.894Z,989.43
2022-12-12T07:02:43.874Z,989.46
2022-12-12T07:03:43.813Z,989.47
2022-12-12T07:04:43.777Z,989.49
2022-12-12T07:05:43.825Z,989.48
2022-12-12T07:06:43.733Z,989.48
2022-12-12T07:07:43.774Z,989.45
2022-12-12T07:08:43.674Z,989.47
2022-12-12T07:09:43.654Z,989.50
2022-12-12T07:10:43.628Z,989.48
2022-12-12T07:11:43.595Z,989.50
2022-12-12T07:12:47.634Z,989.50
2022-12-12T07:13:43.527Z,989.50
2022-12-12T07:14:43.510Z,989.52
2022-12-12T07:15:43.631Z,989.53
2022-12-12T07:16:43.459Z,989.53
2022-12-12T07:17:43.428Z,989.56
2022-12-12T07:18:43.399Z,989.60
2022-12-12T07:19:43.368Z,989.62
2022-12-12T07:20:43.361Z,989.64
2022-12-12T07:21:43.362Z,989.62
2022-12-12T07:22:43.295Z,989.67
2022-12-12T07:23:43.271Z,989.63
2022-12-12T07:24:43.237Z,989.64
2022-12-12T07:25:43.224Z,989.63
2022-12-12T07:26:43.215Z,989.65
2022-12-12T07:27:43.157Z,989.66
2022-12-12T07:28:43.134Z,989.68
2022-12-12T07:29:43.104Z,989.68
2022-12-12T07:30:43.137Z,989.68
2022-12-12T07:31:43.045Z,989.69
2022-12-12T07:32:43.108Z,989.69
2022-12-12T07:33:44.501Z,989.70
2022-12-12T07:34:42.966Z,989.71
2022-12-12T07:35:42.937Z,989.72
2022-12-12T07:36:42.917Z,989.74
2022-12-12T07:37:42.880Z,989.71
2022-12-12T07:38:42.861Z,989.75
2022-12-12T07:39:42.824Z,989.77
2022-12-12T07:40:42.804Z,989.73
2022-12-12T07:41:42.784Z,989.76
2022-12-12T07:42:42.751Z,989.76
2022-12-12T07:43:44.167Z,989.78
2022-12-12T07:44:42.690Z,989.79
2022-12-12T07:45:42.674Z,989.84
2022-12-12T07:46:42.690Z,989.82
2022-12-12T07:47:42.619Z,989.84
2022-12-12T07:48:42.615Z,989.82
2022-12-12T07:49:42.622Z,989.79
2022-12-12T07:50:42.569Z,989.85
2022-12-12T07:51:47.245Z,989.83
2022-12-12T07:52:42.486Z,989.82
2022-12-12T07:53:42.455Z,989.80
2022-12-12T07:54:42.423Z,989.82
2022-12-12T07:55:42.455Z,989.82
2022-12-12T07:56:42.378Z,989.84
2022-12-12T07:57:42.357Z,989.85
2022-12-12T07:58:42.350Z,989.89
2022-12-12T07:59:42.290Z,989.85
2022-12-12T08:00:42.325Z,989.93
2022-12-12T08:01:42.289Z,989.93
2022-12-12T08:02:42.209Z,989.89
2022-12-12T08:03:42.210Z,989.91
2022-12-12T08:04:42.204Z,989.95
2022-12-12T08:05:42.132Z,989.97
2022-12-12T08:06:42.111Z,989.99
2022-12-12T08:07:42.080Z,989.98
2022-12-12T08:08:42.051Z,989.95
2022-12-12T08:09:42.019Z,989.93
2022-12-12T08:10:41.990Z,990.00
2022-12-12T08:11:46.263Z,990.00
2022-12-12T08:12:41.955Z,989.97
2022-12-12T08:13:41.914Z,990.01
2022-12-12T08:14:41.886Z,990.04
2022-12-12T08:15:41.897Z,990.08
2022-12-12T08:16:41.827Z,990.04
2022-12-12T08:17:41.803Z,990.06
2022-12-12T08:18:41.778Z,990.08
2022-12-12T08:19:41.794Z,990.05
2022-12-12T08:20:41.725Z,990.06
2022-12-12T08:21:41.696Z,990.08
2022-12-12T08:22:41.672Z,990.09
2022-12-12T08:23:41.649Z,990.07
2022-12-12T08:24:41.611Z,990.05
2022-12-12T08:25:41.608Z,990.06
2022-12-12T08:26:41.553Z,990.07
2022-12-12T08:27:41.539Z,990.11
2022-12-12T08:28:41.505Z,990.09
2022-12-12T08:29:41.484Z,990.09
2022-12-12T08:30:41.465Z,990.11
2022-12-12T08:31:41.519Z,990.10
2022-12-12T08:32:41.418Z,990.07
2022-12-12T08:33:41.375Z,990.06
2022-12-12T08:34:41.345Z,990.07
2022-12-12T08:35:41.331Z,990.10
2022-12-12T08:36:41.295Z,990.08
2022-12-12T08:37:41.270Z,990.09
2022-12-12T08:38:41.230Z,990.09
2022-12-12T08:39:41.211Z,990.11
2022-12-12T08:40:41.185Z,990.14
2022-12-12T08:41:41.167Z,990.13
2022-12-12T08:42:41.126Z,990.19
2022-12-12T08:43:41.104Z,990.17
2022-12-12T08:44:41.072Z,990.19
2022-12-12T08:45:41.063Z,990.21
2022-12-12T08:46:41.087Z,990.27
2022-12-12T08:47:40.994Z,990.20
2022-12-12T08:48:40.968Z,990.22
2022-12-12T08:49:40.940Z,990.23
2022-12-12T08:50:40.913Z,990.24
2022-12-12T08:51:40.890Z,990.24
2022-12-12T08:52:40.861Z,990.21
2022-12-12T08:53:40.835Z,990.22
2022-12-12T08:54:40.803Z,990.21
2022-12-12T08:55:40.890Z,990.21
2022-12-12T08:56:40.803Z,990.20
2022-12-12T08:57:40.778Z,990.22
2022-12-12T08:58:40.722Z,990.27
2022-12-12T08:59:40.713Z,990.26
2022-12-12T09:00:40.650Z,990.24
2022-12-12T09:01:40.821Z,990.25
2022-12-12T09:02:40.740Z,990.26
2022-12-12T09:03:40.574Z,990.29
2022-12-12T09:04:40.552Z,990.27
2022-12-12T09:05:40.529Z,990.30
2022-12-12T09:06:40.496Z,990.27
2022-12-12T09:07:40.465Z,990.35
2022-12-12T09:08:40.434Z,990.35
2022-12-12T09:09:40.451Z,990.36
2022-12-12T09:10:40.386Z,990.39
2022-12-12T09:11:40.370Z,990.40
2022-12-12T09:12:42.067Z,990.45
2022-12-12T09:13:40.307Z,990.44
2022-12-12T09:14:40.286Z,990.45
2022-12-12T09:15:40.251Z,990.44
2022-12-12T09:16:40.298Z,990.41
2022-12-12T09:17:40.201Z,990.42
2022-12-12T09:18:46.334Z,990.42
2022-12-12T09:19:40.153Z,990.48
2022-12-12T09:20:40.119Z,990.51
2022-12-12T09:21:40.095Z,990.48
2022-12-12T09:22:40.073Z,990.51
2022-12-12T09:23:40.046Z,990.53
2022-12-12T09:24:40.018Z,990.54
2022-12-12T09:25:42.735Z,990.56
2022-12-12T09:26:39.973Z,990.60
2022-12-12T09:27:39.949Z,990.62
2022-12-12T09:28:39.919Z,990.59
2022-12-12T09:29:39.896Z,990.64
2022-12-12T09:30:39.862Z,990.62
2022-12-12T09:31:39.942Z,990.66
2022-12-12T09:32:39.866Z,990.70
2022-12-12T09:33:39.794Z,990.69
2022-12-12T09:34:39.773Z,990.69
2022-12-12T09:35:39.751Z,990.70
2022-12-12T09:36:39.708Z,990.69
2022-12-12T09:37:39.694Z,990.66
2022-12-12T09:38:39.664Z,990.66
2022-12-12T09:39:39.638Z,990.66
2022-12-12T09:40:39.623Z,990.66
2022-12-12T09:41:39.586Z,990.68
2022-12-12T09:42:39.557Z,990.69
2022-12-12T09:43:39.542Z,990.67
2022-12-12T09:44:39.515Z,990.67
2022-12-12T09:45:39.538Z,990.60
2022-12-12T09:46:39.459Z,990.65
2022-12-12T09:47:39.436Z,990.63
2022-12-12T09:48:39.409Z,990.62
2022-12-12T09:49:43.402Z,990.64
2022-12-12T09:50:39.422Z,990.61
2022-12-12T09:51:39.339Z,990.68
2022-12-12T09:52:39.331Z,990.63
2022-12-12T09:53:39.288Z,990.60
2022-12-12T09:54:39.270Z,990.64
2022-12-12T09:55:39.227Z,990.62
2022-12-12T09:56:39.222Z,990.63
2022-12-12T09:57:39.194Z,990.62
2022-12-12T09:58:44.834Z,990.62
2022-12-12T09:59:39.128Z,990.61
2022-12-12T10:00:39.131Z,990.57
2022-12-12T10:01:39.166Z,990.58
2022-12-12T10:02:39.043Z,990.59
2022-12-12T10:03:39.027Z,990.59
2022-12-12T10:04:38.999Z,990.57
2022-12-12T10:05:39.010Z,990.58
2022-12-12T10:06:38.958Z,990.57
2022-12-12T10:07:38.922Z,990.53
2022-12-12T10:08:38.910Z,990.51
2022-12-12T10:09:38.874Z,990.48
2022-12-12T10:10:38.850Z,990.49
2022-12-12T10:11:38.825Z,990.46
2022-12-12T10:12:38.801Z,990.49
2022-12-12T10:13:38.766Z,990.44
2022-12-12T10:14:38.748Z,990.47
2022-12-12T10:15:38.727Z,990.44
2022-12-12T10:16:38.986Z,990.50
2022-12-12T10:17:38.688Z,990.52
2022-12-12T10:18:38.637Z,990.48
2022-12-12T10:19:38.620Z,990.53
2022-12-12T10:20:38.593Z,990.50
2022-12-12T10:21:38.567Z,990.49
2022-12-12T10:22:38.544Z,990.47
2022-12-12T10:23:38.514Z,990.46
2022-12-12T10:24:38.505Z,990.48
2022-12-12T10:25:38.462Z,990.44
2022-12-12T10:26:38.437Z,990.44
2022-12-12T10:27:38.421Z,990.44
2022-12-12T10:28:38.387Z,990.43
2022-12-12T10:29:41.568Z,990.47
2022-12-12T10:30:38.334Z,990.41
2022-12-12T10:31:38.336Z,990.47
2022-12-12T10:32:38.278Z,990.45
2022-12-12T10:33:38.256Z,990.45
2022-12-12T10:34:38.248Z,990.45
2022-12-12T10:35:38.259Z,990.48
2022-12-12T10:36:38.187Z,990.51
2022-12-12T10:37:38.149Z,990.51
2022-12-12T10:38:38.142Z,990.54
2022-12-12T10:39:38.106Z,990.56
2022-12-12T10:40:38.072Z,990.59
2022-12-12T10:41:38.053Z,990.63
2022-12-12T10:42:38.025Z,990.62
2022-12-12T10:43:37.998Z,990.66
2022-12-12T10:44:37.975Z,990.66
2022-12-12T10:45:38.055Z,990.64
2022-12-12T10:46:38.102Z,990.64
2022-12-12T10:47:37.899Z,990.62
2022-12-12T10:48:37.869Z,990.64
2022-12-12T10:49:37.870Z,990.63
2022-12-12T10:50:37.860Z,990.64
2022-12-12T10:51:37.793Z,990.63
2022-12-12T10:52:37.760Z,990.62
2022-12-12T10:53:37.850Z,990.63
2022-12-12T10:54:37.730Z,990.62
2022-12-12T10:55:37.685Z,990.61
2022-12-12T10:56:37.743Z,990.59
2022-12-12T10:57:37.635Z,990.63
2022-12-12T10:58:37.619Z,990.58
2022-12-12T10:59:37.582Z,990.59
2022-12-12T11:00:37.553Z,990.56
2022-12-12T11:02:37.626Z,990.56
2022-12-12T11:03:37.518Z,990.57
2022-12-12T11:04:37.485Z,990.58
2022-12-12T11:05:37.424Z,990.55
2022-12-12T11:06:37.410Z,990.56
2022-12-12T11:07:37.376Z,990.57
2022-12-12T11:08:37.621Z,990.55
2022-12-12T11:09:37.326Z,990.53
2022-12-12T11:10:37.305Z,990.51
2022-12-12T11:11:37.281Z,990.47
2022-12-12T11:12:37.244Z,990.49
2022-12-12T11:13:37.229Z,990.45
2022-12-12T11:14:37.196Z,990.47
2022-12-12T11:15:37.176Z,990.40
2022-12-12T11:16:37.191Z,990.44
2022-12-12T11:17:37.129Z,990.41
2022-12-12T11:18:37.099Z,990.39
2022-12-12T11:19:37.068Z,990.49
2022-12-12T11:20:37.044Z,990.46
2022-12-12T11:21:37.027Z,990.52
2022-12-12T11:22:37.005Z,990.51
2022-12-12T11:23:36.972Z,990.54
2022-12-12T11:24:36.942Z,990.60
2022-12-12T11:25:36.940Z,990.55
2022-12-12T11:26:36.913Z,990.57
2022-12-12T11:27:36.883Z,990.59
2022-12-12T11:28:36.843Z,990.56
2022-12-12T11:29:36.853Z,990.58
2022-12-12T11:30:36.787Z,990.55
2022-12-12T11:31:36.805Z,990.57
2022-12-12T11:32:36.741Z,990.59
2022-12-12T11:33:36.712Z,990.55
2022-12-12T11:34:36.686Z,990.52
2022-12-12T11:35:36.685Z,990.52
2022-12-12T11:36:36.644Z,990.48
2022-12-12T11:37:36.629Z,990.48
2022-12-12T11:38:36.582Z,990.47
2022-12-12T11:39:36.609Z,990.50
2022-12-12T11:40:36.543Z,990.51
2022-12-12T11:41:36.511Z,990.50
2022-12-12T11:42:36.489Z,990.54
2022-12-12T11:43:36.453Z,990.55
2022-12-12T11:44:36.432Z,990.57
2022-12-12T11:45:36.448Z,990.57
2022-12-12T11:46:36.374Z,990.58
2022-12-12T11:47:36.359Z,990.57
2022-12-12T11:48:36.354Z,990.58
2022-12-12T11:49:36.299Z,990.55
2022-12-12T11:50:36.283Z,990.56
2022-12-12T11:51:36.258Z,990.53
2022-12-12T11:52:36.223Z,990.54
2022-12-12T11:53:36.198Z,990.57
2022-12-12T11:54:36.191Z,990.54
2022-12-12T11:55:36.149Z,990.52
2022-12-12T11:56:36.115Z,990.50
2022-12-12T11:57:36.095Z,990.53
2022-12-12T11:58:36.085Z,990.50
2022-12-12T11:59:36.037Z,990.48
2022-12-12T12:00:36.032Z,990.45
2022-12-12T12:01:36.043Z,990.50
2022-12-12T12:02:35.965Z,990.48
2022-12-12T12:03:35.975Z,990.46
2022-12-12T12:04:35.996Z,990.46
2022-12-12T12:05:35.907Z,990.41
2022-12-12T12:06:35.870Z,990.41
2022-12-12T12:07:35.859Z,990.45
2022-12-12T12:08:35.878Z,990.40
2022-12-12T12:09:35.778Z,990.36
2022-12-12T12:10:35.766Z,990.39
2022-12-12T12:11:35.737Z,990.38
2022-12-12T12:12:35.702Z,990.36
2022-12-12T12:13:35.676Z,990.36
2022-12-12T12:14:35.659Z,990.33
2022-12-12T12:15:35.620Z,990.27
2022-12-12T12:16:35.709Z,990.32
2022-12-12T12:17:35.562Z,990.30
2022-12-12T12:18:35.557Z,990.26
2022-12-12T12:19:35.532Z,990.26
2022-12-12T12:20:35.490Z,990.29
2022-12-12T12:21:35.468Z,990.25
2022-12-12T12:22:35.448Z,990.27
2022-12-12T12:23:41.204Z,990.26
2022-12-12T12:24:35.385Z,990.24
2022-12-12T12:25:35.358Z,990.24
2022-12-12T12:26:35.337Z,990.27
2022-12-12T12:27:35.304Z,990.25
2022-12-12T12:28:35.287Z,990.23
2022-12-12T12:29:35.248Z,990.26
2022-12-12T12:30:35.316Z,990.27
2022-12-12T12:31:35.212Z,990.26
2022-12-12T12:32:35.180Z,990.26
2022-12-12T12:33:35.146Z,990.26